Terminal Aerodrome Forecast
Issued by NWS Springfield, MO

Home | Current Version | Previous Version | Text Only | Print | Product List | Glossary On
Versions: 1 2 3 4 5 6 7 8 9 10 11 12 13
000
FTUS43 KSGF 251503 AAB
TAFSGF
TAF AMD
KSGF 251503Z 2515/2612 19007KT P6SM SCT070
     FM251700 27008KT P6SM -SHRA VCTS BKN090CB
     FM252100 30010KT P6SM -SHRA VCTS OVC070CB
     FM252300 32008KT P6SM BKN050
     FM261000 34006KT P6SM SCT200=

USA.gov is the U.S. government's official web portal to all federal, state and local government web resources and services.